Time;durP1;ratioP1;P1;durP2;ratioP2;P2;SDS_P1;SDS_P2;PMS_P1;PMS_P2;Temp;Humidity;BMP_temperature;BMP_pressure;BME280_temperature;BME280_humidity;BME280_pressure;Samples;Min_cycle;Max_cycle;Signal;HPM_P1;HPM_P2
2021/07/21 00:02:12;;;;;;;28.2;22.5;;;;;;;17.47;84.61719;941.8766;;;;
2021/07/21 00:04:37;;;;;;;27.3;21.4;;;;;;;17.47;84.66211;941.8533;;;;
2021/07/21 00:07:05;;;;;;;26.5;22.2;;;;;;;17.46;84.68359;941.8759;;;;
2021/07/21 00:09:28;;;;;;;27.4;22.5;;;;;;;17.4;84.79883;941.89;;;;
2021/07/21 00:14:20;;;;;;;27.9;22.3;;;;;;;17.31;85.00293;941.7983;;;;
2021/07/21 00:16:53;;;;;;;28.7;22.5;;;;;;;17.32;84.85449;941.8223;;;;
2021/07/21 00:20:06;;;;;;;28.1;22.9;;;;;;;17.25;85.24609;941.8658;;;;
2021/07/21 00:21:38;;;;;;;27.7;22.4;;;;;;;17.23;85.21973;941.8572;;;;
2021/07/21 00:24:03;;;;;;;28.3;21.9;;;;;;;17.13;85.56934;941.829;;;;
2021/07/21 00:26:28;;;;;;;28;23.1;;;;;;;17.14;85.43359;941.824;;;;
2021/07/21 00:28:54;;;;;;;27.8;22.5;;;;;;;17.06;85.85645;941.8409;;;;
2021/07/21 00:31:20;;;;;;;31.5;23.4;;;;;;;17.03;85.97852;941.8002;;;;
2021/07/21 00:33:46;;;;;;;29;22.2;;;;;;;16.99;86.04102;941.8453;;;;
2021/07/21 00:36:11;;;;;;;28.8;22.8;;;;;;;16.97;85.89844;941.7795;;;;
2021/07/21 00:38:37;;;;;;;30.4;23;;;;;;;16.98;85.5293;941.7722;;;;
2021/07/21 00:41:02;;;;;;;28.4;23.6;;;;;;;17;85.61426;941.7551;;;;
2021/07/21 00:43:29;;;;;;;28;22.5;;;;;;;16.94;86.00879;941.7404;;;;
2021/07/21 00:45:53;;;;;;;27.1;23;;;;;;;16.86;86.16699;941.7467;;;;
2021/07/21 00:48:19;;;;;;;27.5;22.5;;;;;;;16.81;86.2627;941.7244;;;;
2021/07/21 00:50:44;;;;;;;27.4;22.9;;;;;;;16.78;86.56641;941.7352;;;;
2021/07/21 00:53:11;;;;;;;27.5;22.9;;;;;;;16.71;86.63672;941.7003;;;;
2021/07/21 00:55:36;;;;;;;27.7;22.4;;;;;;;16.67;86.75488;941.6926;;;;
2021/07/21 00:58:03;;;;;;;30.2;23.9;;;;;;;16.69;86.74707;941.6434;;;;
2021/07/21 01:00:28;;;;;;;30.8;23.3;;;;;;;16.7;86.41309;941.6675;;;;
2021/07/21 01:02:54;;;;;;;29.9;23.5;;;;;;;16.69;86.45703;941.6258;;;;
2021/07/21 01:05:19;;;;;;;27.2;22.8;;;;;;;16.58;86.14648;941.618;;;;
2021/07/21 01:07:47;;;;;;;32.6;24.4;;;;;;;16.58;86.56152;941.6068;;;;
2021/07/21 01:10:12;;;;;;;28.5;22.9;;;;;;;16.57;86.375;941.6317;;;;
2021/07/21 01:12:41;;;;;;;28.6;23;;;;;;;16.51;86.67676;941.6644;;;;
2021/07/21 01:15:11;;;;;;;30.9;23.8;;;;;;;16.44;86.88184;941.6609;;;;
2021/07/21 01:17:38;;;;;;;29;22.5;;;;;;;16.35;87.44434;941.6589;;;;
2021/07/21 01:20:03;;;;;;;28.3;23;;;;;;;16.32;87.59961;941.6584;;;;
2021/07/21 01:22:29;;;;;;;31.1;22.3;;;;;;;16.29;87.62695;941.6626;;;;
2021/07/21 01:24:57;;;;;;;28.3;22.6;;;;;;;16.33;87.3584;941.7073;;;;
2021/07/21 01:27:23;;;;;;;28.9;23.1;;;;;;;16.31;86.94922;941.6287;;;;
2021/07/21 01:29:52;;;;;;;31.9;24.1;;;;;;;16.34;86.93164;941.6992;;;;
2021/07/21 01:32:17;;;;;;;30.2;23.5;;;;;;;16.25;87.81641;941.7159;;;;
2021/07/21 01:34:42;;;;;;;28.4;23.4;;;;;;;16.19;87.97754;941.745;;;;
2021/07/21 01:37:07;;;;;;;29.7;23.4;;;;;;;16.18;87.70898;941.6864;;;;
2021/07/21 01:39:32;;;;;;;29;23.6;;;;;;;16.14;87.60938;941.742;;;;
2021/07/21 01:41:58;;;;;;;29.2;23.4;;;;;;;16.15;87.33398;941.7332;;;;
2021/07/21 01:44:23;;;;;;;32.2;23.8;;;;;;;16.15;86.69727;941.7042;;;;
2021/07/21 01:46:49;;;;;;;28.7;23.7;;;;;;;16.12;86.26465;941.6939;;;;
2021/07/21 01:49:14;;;;;;;30.7;24.8;;;;;;;16.15;87.20703;941.7219;;;;
2021/07/21 01:51:42;;;;;;;29.9;23.4;;;;;;;16.01;87.89453;941.7481;;;;
2021/07/21 01:54:09;;;;;;;31;23.8;;;;;;;15.88;88.4707;941.7778;;;;
2021/07/21 01:56:33;;;;;;;29;23.9;;;;;;;15.86;88.87109;941.7137;;;;
2021/07/21 01:58:58;;;;;;;31.3;23.8;;;;;;;15.8;88.9873;941.769;;;;
2021/07/21 02:01:23;;;;;;;32.3;23.8;;;;;;;15.8;89.05664;941.7418;;;;
2021/07/21 02:03:49;;;;;;;30.1;23.6;;;;;;;15.82;88.8623;941.7605;;;;
2021/07/21 02:06:14;;;;;;;27.9;22.9;;;;;;;15.81;88.94141;941.7081;;;;
2021/07/21 02:08:39;;;;;;;31.2;24;;;;;;;15.7;89.38086;941.7006;;;;
2021/07/21 02:11:09;;;;;;;29.5;24.2;;;;;;;15.66;89.04883;941.7015;;;;
2021/07/21 02:13:37;;;;;;;29.8;23.6;;;;;;;15.68;89.07715;941.7255;;;;
2021/07/21 02:16:10;;;;;;;29.3;24.2;;;;;;;15.69;89.54102;941.7528;;;;
2021/07/21 02:18:38;;;;;;;29.8;23.9;;;;;;;15.65;89.66113;941.6976;;;;
2021/07/21 02:21:03;;;;;;;29.9;23.9;;;;;;;15.61;89.5957;941.7175;;;;
2021/07/21 02:23:33;;;;;;;30.5;24;;;;;;;15.66;89.1084;941.6437;;;;
2021/07/21 02:25:57;;;;;;;30.7;23.9;;;;;;;15.73;88.37012;941.5984;;;;
2021/07/21 02:28:26;;;;;;;29.4;24.3;;;;;;;15.71;88.49316;941.6749;;;;
2021/07/21 02:30:51;;;;;;;29;23.6;;;;;;;15.69;88.20117;941.6805;;;;
2021/07/21 02:33:16;;;;;;;29.2;23.4;;;;;;;15.61;88.27734;941.6998;;;;
2021/07/21 02:35:47;;;;;;;29.7;24.3;;;;;;;15.56;88.70508;941.6733;;;;
2021/07/21 02:38:16;;;;;;;29.8;23.3;;;;;;;15.51;89.04199;941.6903;;;;
2021/07/21 02:40:41;;;;;;;29.9;24.1;;;;;;;15.46;89.125;941.697;;;;
2021/07/21 02:43:09;;;;;;;30.9;23.4;;;;;;;15.46;89.125;941.6721;;;;
2021/07/21 02:45:36;;;;;;;29.9;24.2;;;;;;;15.46;88.77734;941.6794;;;;
2021/07/21 02:48:00;;;;;;;29.7;23.3;;;;;;;15.38;89.05078;941.7322;;;;
2021/07/21 02:50:25;;;;;;;28.9;22.8;;;;;;;15.34;89.04395;941.7573;;;;
2021/07/21 02:52:50;;;;;;;28.2;22.9;;;;;;;15.29;89.02148;941.7205;;;;
2021/07/21 02:55:18;;;;;;;27.8;23.2;;;;;;;15.32;88.96875;941.7092;;;;
2021/07/21 02:57:43;;;;;;;29;24.2;;;;;;;15.3;88.98828;941.6828;;;;
2021/07/21 03:00:12;;;;;;;27.8;22.3;;;;;;;15.28;88.99414;941.678;;;;
2021/07/21 03:02:37;;;;;;;30.5;23;;;;;;;15.29;88.87109;941.6732;;;;
2021/07/21 03:05:03;;;;;;;32;23;;;;;;;15.32;88.77246;941.6434;;;;
2021/07/21 03:07:28;;;;;;;30.1;23.7;;;;;;;15.31;88.50684;941.6795;;;;
2021/07/21 03:09:56;;;;;;;31.2;23.9;;;;;;;15.27;88.56543;941.6838;;;;
2021/07/21 03:12:22;;;;;;;30;23;;;;;;;15.24;88.76758;941.6797;;;;
2021/07/21 03:14:47;;;;;;;28.6;22.9;;;;;;;15.22;88.8916;941.7079;;;;
2021/07/21 03:17:19;;;;;;;27.1;21.9;;;;;;;15.22;88.68359;941.6959;;;;
2021/07/21 03:19:47;;;;;;;30.3;23.2;;;;;;;15.21;88.57813;941.7325;;;;
2021/07/21 03:22:14;;;;;;;29.9;23.9;;;;;;;15.01;89.47168;941.7296;;;;
2021/07/21 03:24:44;;;;;;;31.6;24.2;;;;;;;14.87;90.74316;941.7009;;;;
2021/07/21 03:27:16;;;;;;;30.4;24.4;;;;;;;14.85;90.60547;941.7355;;;;
2021/07/21 03:29:45;;;;;;;29;23.6;;;;;;;14.92;90.3623;941.7433;;;;
2021/07/21 03:32:11;;;;;;;30.5;23.9;;;;;;;14.96;90.02637;941.6526;;;;
2021/07/21 03:34:40;;;;;;;29.1;23.3;;;;;;;14.94;90.34473;941.7946;;;;
2021/07/21 03:37:07;;;;;;;28.6;22.5;;;;;;;14.95;90.2666;941.7224;;;;
2021/07/21 03:39:35;;;;;;;29.8;24.1;;;;;;;14.98;90.01953;941.6735;;;;
2021/07/21 03:42:00;;;;;;;29.1;23.6;;;;;;;15.03;89.77539;941.6953;;;;
2021/07/21 03:44:29;;;;;;;29;23.4;;;;;;;15.02;90.00391;941.7361;;;;
2021/07/21 03:46:54;;;;;;;29.3;23;;;;;;;15.01;90.00293;941.7303;;;;
2021/07/21 03:49:20;;;;;;;29.9;23.4;;;;;;;15.02;89.88867;941.7426;;;;
2021/07/21 03:51:45;;;;;;;29.3;23.6;;;;;;;15.05;89.96387;941.7674;;;;
2021/07/21 03:54:12;;;;;;;31;24.5;;;;;;;15.15;89.38379;941.7664;;;;
2021/07/21 03:56:37;;;;;;;29.8;23.6;;;;;;;15.11;89.68848;941.7151;;;;
2021/07/21 03:59:06;;;;;;;28.4;23.6;;;;;;;15.18;89.41309;941.7342;;;;
2021/07/21 04:02:35;;;;;;;30.1;23.1;;;;;;;15.22;88.83301;941.7817;;;;
2021/07/21 04:05:00;;;;;;;31.9;23.4;;;;;;;15.21;88.82031;941.8007;;;;
2021/07/21 04:07:29;;;;;;;30;23.4;;;;;;;15.15;88.92285;941.8242;;;;
2021/07/21 04:09:54;;;;;;;28.5;23.5;;;;;;;15.04;89.54688;941.838;;;;
2021/07/21 04:12:22;;;;;;;29.6;23.7;;;;;;;15.02;89.93359;941.83;;;;
2021/07/21 04:14:47;;;;;;;27.7;23.9;;;;;;;14.95;90.23145;941.8547;;;;
2021/07/21 04:17:12;;;;;;;32;24;;;;;;;14.95;90.43945;941.8731;;;;
2021/07/21 04:19:38;;;;;;;31.6;24.2;;;;;;;14.98;90.2832;941.8964;;;;
2021/07/21 04:22:03;;;;;;;30;23.6;;;;;;;15.05;89.7002;941.9207;;;;
2021/07/21 04:24:32;;;;;;;32.7;24.3;;;;;;;14.75;90.65332;941.9461;;;;
2021/07/21 04:26:57;;;;;;;29.2;24.1;;;;;;;14.87;90.5957;942.0064;;;;
2021/07/21 04:29:25;;;;;;;29.9;23.4;;;;;;;14.89;90.72754;941.9727;;;;
2021/07/21 04:31:50;;;;;;;30.2;23.6;;;;;;;14.99;89.95215;942.003;;;;
2021/07/21 04:34:15;;;;;;;33.1;23.4;;;;;;;15.14;89.41699;942.0496;;;;
2021/07/21 04:36:43;;;;;;;30.8;23.2;;;;;;;15.28;88.66113;942.076;;;;
2021/07/21 04:39:08;;;;;;;28.5;23.2;;;;;;;15.37;88.0791;942.0814;;;;
2021/07/21 04:41:36;;;;;;;32.1;23.5;;;;;;;15.4;87.7041;941.9681;;;;
2021/07/21 04:44:02;;;;;;;31.3;23.7;;;;;;;15.38;87.79102;942.034;;;;
2021/07/21 04:46:29;;;;;;;31.1;23.6;;;;;;;15.37;87.88281;942.0405;;;;
2021/07/21 04:48:54;;;;;;;30.4;23.5;;;;;;;15.42;87.81348;942.1;;;;
2021/07/21 04:51:23;;;;;;;34.1;23.8;;;;;;;15.57;87.59961;942.0762;;;;
2021/07/21 04:53:47;;;;;;;31.8;23.6;;;;;;;15.61;87.0752;942.0908;;;;
2021/07/21 04:56:15;;;;;;;29.1;22.3;;;;;;;15.53;87.34863;942.1108;;;;
2021/07/21 04:58:40;;;;;;;28;23.2;;;;;;;15.48;87.8916;942.0653;;;;
2021/07/21 05:01:07;;;;;;;28.1;22.6;;;;;;;15.55;87.59473;942.134;;;;
2021/07/21 05:03:33;;;;;;;28.3;22.2;;;;;;;15.63;87.54102;942.1039;;;;
2021/07/21 05:05:58;;;;;;;31.1;23;;;;;;;15.68;86.96289;942.1534;;;;
2021/07/21 05:08:23;;;;;;;32.6;23.8;;;;;;;15.81;87.03613;942.1962;;;;
2021/07/21 05:10:49;;;;;;;37.3;25.2;;;;;;;15.99;85.99512;942.17;;;;
2021/07/21 05:13:15;;;;;;;37.2;24.2;;;;;;;15.79;86.60352;942.1217;;;;
2021/07/21 05:15:47;;;;;;;34;24.4;;;;;;;15.81;86.90723;942.1353;;;;
2021/07/21 05:18:13;;;;;;;28.3;22.1;;;;;;;16.26;86.18848;942.1755;;;;
2021/07/21 05:20:45;;;;;;;27.7;20.3;;;;;;;16.95;82.22168;942.1594;;;;
2021/07/21 05:23:13;;;;;;;25.3;19.8;;;;;;;17.59;79.61328;942.0129;;;;
2021/07/21 05:25:38;;;;;;;25.9;20.6;;;;;;;18.05;77.20117;942.0575;;;;
2021/07/21 05:28:07;;;;;;;23.9;20.3;;;;;;;18.31;76.07129;942.1599;;;;
2021/07/21 05:30:35;;;;;;;25.8;19.9;;;;;;;18.54;75.0293;942.1351;;;;
2021/07/21 05:33:05;;;;;;;25.3;18.4;;;;;;;19.59;71.50195;942.0999;;;;
2021/07/21 05:35:30;;;;;;;25.6;20;;;;;;;20;69.1875;942.0608;;;;
2021/07/21 05:38:00;;;;;;;24.6;20;;;;;;;19.25;72.51855;942.0966;;;;
2021/07/21 05:40:28;;;;;;;27;18.8;;;;;;;19.41;71.47266;942.0356;;;;
2021/07/21 05:42:53;;;;;;;24;19.1;;;;;;;20.03;68.93652;942.0944;;;;
2021/07/21 05:45:21;;;;;;;25.7;20;;;;;;;21.29;66.18359;942.1005;;;;
2021/07/21 05:47:46;;;;;;;26.5;19.7;;;;;;;22.15;62.46777;942.0483;;;;
2021/07/21 05:50:13;;;;;;;24.7;18.6;;;;;;;22.35;61.2168;942.0784;;;;
2021/07/21 05:52:38;;;;;;;24.6;18.5;;;;;;;23.6;57.47168;942.0972;;;;
2021/07/21 05:55:04;;;;;;;22.2;18.6;;;;;;;24.65;53.38672;942.133;;;;
2021/07/21 05:57:29;;;;;;;21.6;18;;;;;;;22.46;58.88574;942.1013;;;;
2021/07/21 05:59:56;;;;;;;20.7;17.3;;;;;;;23.91;56.68848;942.1306;;;;
2021/07/21 06:02:22;;;;;;;21.1;17.5;;;;;;;25.11;52.4375;942.1596;;;;
2021/07/21 06:04:48;;;;;;;22.8;18.1;;;;;;;24.7;52.99121;942.1766;;;;
2021/07/21 06:07:13;;;;;;;20.5;17.2;;;;;;;25.24;51.42676;942.1627;;;;
2021/07/21 06:09:41;;;;;;;21.8;17.3;;;;;;;25.84;49.21387;942.1614;;;;
2021/07/21 06:12:06;;;;;;;20.4;17.1;;;;;;;25.47;49.26758;942.1436;;;;
2021/07/21 06:14:34;;;;;;;21.5;17;;;;;;;24.22;53.33496;942.1277;;;;
2021/07/21 06:17:05;;;;;;;20.8;16.9;;;;;;;24.67;51.96289;942.1909;;;;
2021/07/21 06:19:34;;;;;;;20.4;17.9;;;;;;;25.02;51.44727;942.1809;;;;
2021/07/21 06:22:00;;;;;;;20.2;16.6;;;;;;;25.64;49.97168;942.2086;;;;
2021/07/21 06:24:26;;;;;;;21.8;17;;;;;;;25.74;49.33301;942.2299;;;;
2021/07/21 06:26:51;;;;;;;20.9;16.7;;;;;;;26.06;49.12012;942.1944;;;;
2021/07/21 06:29:21;;;;;;;18.8;16.4;;;;;;;27.3;45.08105;942.2302;;;;
2021/07/21 06:31:46;;;;;;;20;17.2;;;;;;;25.27;50.02441;942.186;;;;
2021/07/21 06:34:15;;;;;;;20.9;17.7;;;;;;;25.92;49.22266;942.2216;;;;
2021/07/21 06:36:40;;;;;;;20;17;;;;;;;26.12;48.7832;942.173;;;;
2021/07/21 06:39:06;;;;;;;22.3;17;;;;;;;26.75;47.02832;942.2097;;;;
2021/07/21 06:41:31;;;;;;;20.1;16.5;;;;;;;27.99;45.56543;942.1819;;;;
2021/07/21 06:44:00;;;;;;;18.5;16;;;;;;;28.27;44.17871;942.2214;;;;
2021/07/21 06:46:22;;;;;;;19.7;16.1;;;;;;;28.21;43.17578;942.213;;;;
2021/07/21 06:48:52;;;;;;;19.7;15.9;;;;;;;29.45;41.03125;942.2587;;;;
2021/07/21 06:51:15;;;;;;;18.9;15.9;;;;;;;30.41;39.29004;942.214;;;;
2021/07/21 06:53:41;;;;;;;18.8;15.9;;;;;;;30.7;39.01758;942.2169;;;;
2021/07/21 06:56:06;;;;;;;20.2;15.7;;;;;;;30.68;39.52832;942.2202;;;;
2021/07/21 06:58:33;;;;;;;18.5;15;;;;;;;31.64;38.94141;942.2299;;;;
2021/07/21 07:00:58;;;;;;;16.1;13.7;;;;;;;31.37;39.25391;942.1967;;;;
2021/07/21 07:03:24;;;;;;;17.5;14.1;;;;;;;32.55;35.81641;942.2184;;;;
2021/07/21 07:05:49;;;;;;;17.8;14.1;;;;;;;32.18;37.61035;942.2242;;;;
2021/07/21 07:08:17;;;;;;;18.1;13.3;;;;;;;33.18;36.12988;942.2342;;;;
2021/07/21 07:10:42;;;;;;;15.3;13;;;;;;;31.12;38.83789;942.2403;;;;
2021/07/21 07:13:09;;;;;;;15.7;12.4;;;;;;;32.12;37.06543;942.2089;;;;
2021/07/21 07:15:34;;;;;;;17.5;13.1;;;;;;;32.28;38.25293;942.2158;;;;
2021/07/21 07:18:01;;;;;;;16.4;12.2;;;;;;;31.97;38.55078;942.1792;;;;
2021/07/21 07:20:27;;;;;;;16.9;13;;;;;;;30.36;42.8916;942.1941;;;;
2021/07/21 07:22:54;;;;;;;16.7;12.8;;;;;;;30.57;41.12012;942.118;;;;
2021/07/21 07:25:19;;;;;;;18.2;12.4;;;;;;;31.16;39.66699;942.1725;;;;
2021/07/21 07:27:47;;;;;;;18.2;13.3;;;;;;;32.13;37.4375;942.1875;;;;
2021/07/21 07:30:14;;;;;;;15.2;12.3;;;;;;;31.66;40.21289;942.1785;;;;
2021/07/21 07:32:39;;;;;;;17.9;12.6;;;;;;;31.86;37.92969;942.1489;;;;
2021/07/21 07:35:04;;;;;;;16.9;12.4;;;;;;;32.9;37.35742;942.1194;;;;
2021/07/21 07:37:30;;;;;;;15.2;12.5;;;;;;;32.75;37.05664;942.1608;;;;
2021/07/21 07:39:55;;;;;;;18;12.7;;;;;;;34.01;35.33008;942.1378;;;;
2021/07/21 07:42:23;;;;;;;16.5;12.5;;;;;;;32.7;37.80762;942.0981;;;;
2021/07/21 07:44:48;;;;;;;14.8;12.2;;;;;;;32.86;37.26953;942.0491;;;;
2021/07/21 07:47:14;;;;;;;15.1;12;;;;;;;32.22;36.75;942.04;;;;
2021/07/21 07:49:39;;;;;;;16.4;12.2;;;;;;;33.05;36.64844;942.0883;;;;
2021/07/21 07:52:06;;;;;;;19.3;12.3;;;;;;;30.8;43.5791;942.0917;;;;
2021/07/21 07:54:31;;;;;;;17.9;13.8;;;;;;;30.71;41.31152;942.0389;;;;
2021/07/21 07:56:57;;;;;;;15.9;12.6;;;;;;;32.88;37.17578;942.0201;;;;
2021/07/21 07:59:22;;;;;;;16.4;12.4;;;;;;;32.13;38.9834;942.0328;;;;
2021/07/21 08:01:50;;;;;;;19.1;12.6;;;;;;;31.96;38.10547;941.9396;;;;
2021/07/21 08:04:15;;;;;;;15;11.5;;;;;;;31.81;40.93262;942.0027;;;;
2021/07/21 08:06:40;;;;;;;16.9;12;;;;;;;31.34;41.09375;942.0153;;;;
2021/07/21 08:09:12;;;;;;;16.1;12.1;;;;;;;31.68;40.72949;941.9966;;;;
2021/07/21 08:11:31;;;;;;;19.9;12.6;;;;;;;31.39;40.32129;941.9622;;;;
2021/07/21 08:13:58;;;;;;;16.2;12.5;;;;;;;31.51;39.45703;941.9086;;;;
2021/07/21 08:16:33;;;;;;;15.8;12.2;;;;;;;32.52;37.5293;941.9081;;;;
2021/07/21 08:19:01;;;;;;;17.9;12.9;;;;;;;33.97;34.43555;941.9045;;;;
2021/07/21 08:21:26;;;;;;;14.2;12.2;;;;;;;33.48;34.39941;941.918;;;;
2021/07/21 08:23:54;;;;;;;13.8;11.8;;;;;;;33.29;35.02148;941.9264;;;;
2021/07/21 08:26:23;;;;;;;15.1;11.6;;;;;;;31.78;38.59473;941.8819;;;;
2021/07/21 08:28:48;;;;;;;13.8;11.3;;;;;;;31.11;39.68652;941.8914;;;;
2021/07/21 08:31:19;;;;;;;14.5;11.7;;;;;;;30.83;42.17188;941.8635;;;;
2021/07/21 08:33:44;;;;;;;14.1;12.1;;;;;;;31.49;40.31738;941.8731;;;;
2021/07/21 08:36:13;;;;;;;16;11.9;;;;;;;30.41;42.47852;941.8195;;;;
2021/07/21 08:38:41;;;;;;;15.3;11.5;;;;;;;30.71;42.94824;941.7665;;;;
2021/07/21 08:41:06;;;;;;;14.4;11.8;;;;;;;30.94;41.35645;941.7901;;;;
2021/07/21 08:43:33;;;;;;;14.7;12;;;;;;;29.39;43.68262;941.8061;;;;
2021/07/21 08:45:58;;;;;;;17.5;12.3;;;;;;;29.95;43.36621;941.823;;;;
2021/07/21 08:48:23;;;;;;;15.1;11.9;;;;;;;31.73;42.12305;941.7997;;;;
2021/07/21 08:50:51;;;;;;;15.5;11.9;;;;;;;33.58;35.27246;941.8945;;;;
2021/07/21 08:53:16;;;;;;;14.3;11.8;;;;;;;33.25;37.79492;941.9189;;;;
2021/07/21 08:55:42;;;;;;;15;11.5;;;;;;;32.2;39.01367;941.8599;;;;
2021/07/21 08:58:07;;;;;;;15.2;11.7;;;;;;;33.88;36.25781;941.9155;;;;
2021/07/21 09:00:33;;;;;;;14.4;11.9;;;;;;;35.26;34.71484;941.8552;;;;
2021/07/21 09:03:00;;;;;;;16.9;12.7;;;;;;;34.34;38.07715;941.9377;;;;
2021/07/21 09:05:25;;;;;;;14.9;12.7;;;;;;;33.1;37.27734;941.9519;;;;
2021/07/21 09:07:52;;;;;;;15.5;12.7;;;;;;;34.37;35.40625;941.8508;;;;
2021/07/21 09:10:19;;;;;;;15.5;12.1;;;;;;;34.04;33.5625;941.8858;;;;
2021/07/21 09:12:44;;;;;;;16;11.9;;;;;;;33.68;35.89355;941.8631;;;;
2021/07/21 09:15:13;;;;;;;16.4;12.8;;;;;;;33.91;34.69629;941.8602;;;;
2021/07/21 09:17:44;;;;;;;15.3;12.3;;;;;;;33.73;35.7168;941.8627;;;;
2021/07/21 09:20:15;;;;;;;15.7;12.5;;;;;;;34.59;34.20508;941.853;;;;
2021/07/21 09:22:44;;;;;;;16.8;12.6;;;;;;;32.43;38.97363;941.8467;;;;
2021/07/21 09:25:09;;;;;;;14.2;11.6;;;;;;;32.98;35.70605;941.8775;;;;
2021/07/21 09:27:34;;;;;;;15.5;12.7;;;;;;;34.04;35.59766;941.8388;;;;
2021/07/21 09:29:59;;;;;;;15.6;12.7;;;;;;;32.23;38.33301;941.7736;;;;
2021/07/21 09:32:24;;;;;;;16.1;12.5;;;;;;;31.61;41.33398;941.7964;;;;
2021/07/21 09:34:55;;;;;;;15.6;12.3;;;;;;;30.32;43.59277;941.8323;;;;
2021/07/21 09:37:20;;;;;;;14.2;12;;;;;;;30.75;41.19629;941.8233;;;;
2021/07/21 09:39:50;;;;;;;15.2;12.6;;;;;;;30.31;43.06543;941.8209;;;;
2021/07/21 09:42:16;;;;;;;17.7;13.5;;;;;;;28.45;49.25098;941.8563;;;;
2021/07/21 09:44:41;;;;;;;15.8;13.3;;;;;;;29.17;48.65039;941.8328;;;;
2021/07/21 09:47:08;;;;;;;17.3;12.7;;;;;;;30.45;41.6582;941.7935;;;;
2021/07/21 09:49:34;;;;;;;16.5;12.4;;;;;;;30.12;44.44434;941.749;;;;
2021/07/21 09:51:59;;;;;;;15.7;12.6;;;;;;;31.63;41.47949;941.7078;;;;
2021/07/21 09:54:24;;;;;;;16.7;12.7;;;;;;;31.56;40.3125;941.705;;;;
2021/07/21 09:56:50;;;;;;;18.7;13;;;;;;;29.74;46.99512;941.7836;;;;
2021/07/21 09:59:16;;;;;;;16.9;13;;;;;;;29.17;47.64941;941.7502;;;;
2021/07/21 10:01:41;;;;;;;17.3;12.8;;;;;;;29.36;46.25293;941.7278;;;;
2021/07/21 10:04:06;;;;;;;19.5;13;;;;;;;28.93;44.64844;941.6887;;;;
2021/07/21 10:06:34;;;;;;;16.6;12.4;;;;;;;28.93;45.11426;941.6261;;;;
2021/07/21 10:08:59;;;;;;;17.9;14;;;;;;;28.54;48.77246;941.6513;;;;
2021/07/21 10:11:29;;;;;;;18.2;13.4;;;;;;;28.82;46.25684;941.6482;;;;
2021/07/21 10:13:58;;;;;;;17.8;13.4;;;;;;;29.81;44.83203;941.6878;;;;
2021/07/21 10:16:31;;;;;;;17.3;12.7;;;;;;;28.92;46.42188;941.6729;;;;
2021/07/21 10:18:56;;;;;;;16.3;12.5;;;;;;;29.48;42.72559;941.6283;;;;
2021/07/21 10:21:24;;;;;;;17;13;;;;;;;27.68;49.43848;941.6819;;;;
2021/07/21 10:23:49;;;;;;;17.7;13.2;;;;;;;27.99;46.9668;941.6094;;;;
2021/07/21 10:26:15;;;;;;;17;13.1;;;;;;;28.47;45.58984;941.6412;;;;
2021/07/21 10:28:40;;;;;;;17.4;13.2;;;;;;;28.89;45.14551;941.6149;;;;
2021/07/21 10:31:10;;;;;;;19;12.9;;;;;;;28.47;47.05371;941.6337;;;;
2021/07/21 10:33:38;;;;;;;19;12.8;;;;;;;28.75;45.61816;941.5442;;;;
2021/07/21 10:36:04;;;;;;;16.5;12.5;;;;;;;29.5;45.18164;941.5815;;;;
2021/07/21 10:38:32;;;;;;;17.8;12.2;;;;;;;29.91;42.80273;941.4908;;;;
2021/07/21 10:41:01;;;;;;;16.8;12;;;;;;;29.46;44.15332;941.5204;;;;
2021/07/21 10:43:26;;;;;;;18.9;13;;;;;;;28.7;47.73047;941.5602;;;;
2021/07/21 10:45:51;;;;;;;16.8;12.2;;;;;;;28.87;46.20117;941.5111;;;;
2021/07/21 10:48:22;;;;;;;16.3;12.4;;;;;;;28.64;47.26172;941.5076;;;;
2021/07/21 10:50:47;;;;;;;16.4;12.2;;;;;;;28.24;46.89746;941.4953;;;;
2021/07/21 10:53:08;;;;;;;18.4;13.6;;;;;;;28.01;48.85742;941.457;;;;
2021/07/21 10:55:35;;;;;;;17.1;12;;;;;;;28.32;49.36621;941.5142;;;;
2021/07/21 11:00:22;;;;;;;17.4;12.7;;;;;;;28.6;47.18555;941.4405;;;;
2021/07/21 11:02:47;;;;;;;15.8;12.4;;;;;;;28.87;46.92773;941.4963;;;;
2021/07/21 11:05:14;;;;;;;17;12.9;;;;;;;28.26;47.06641;941.4172;;;;
2021/07/21 11:07:39;;;;;;;17.2;12.9;;;;;;;28.87;44.46484;941.4386;;;;
2021/07/21 11:10:09;;;;;;;16;12.5;;;;;;;28.88;47.21484;941.4191;;;;
2021/07/21 11:12:37;;;;;;;17.7;11.9;;;;;;;29.05;44.73242;941.3762;;;;
2021/07/21 11:15:03;;;;;;;18.6;13;;;;;;;29.17;44.41113;941.4004;;;;
2021/07/21 11:17:28;;;;;;;19;14.1;;;;;;;27.8;50.85449;941.3318;;;;
2021/07/21 11:19:53;;;;;;;20.4;13.1;;;;;;;27.28;51.3877;941.3455;;;;
2021/07/21 11:22:21;;;;;;;18.2;12.7;;;;;;;27.39;51.67383;941.2827;;;;
2021/07/21 11:24:47;;;;;;;18.8;14.1;;;;;;;26.81;51.60645;941.2974;;;;
2021/07/21 11:27:17;;;;;;;19.1;13.3;;;;;;;26.85;53.43555;941.3038;;;;
2021/07/21 11:29:46;;;;;;;18.2;13.2;;;;;;;27.48;50.44922;941.3547;;;;
2021/07/21 11:32:07;;;;;;;17.5;12.7;;;;;;;27.94;48.7666;941.275;;;;
2021/07/21 11:34:38;;;;;;;19.1;12.9;;;;;;;27.88;48.62988;941.3055;;;;
2021/07/21 11:37:04;;;;;;;16.2;12.3;;;;;;;27.94;47.9834;941.2411;;;;
2021/07/21 11:39:32;;;;;;;16.7;12.9;;;;;;;28.39;47.22266;941.2867;;;;
2021/07/21 11:41:57;;;;;;;18.3;12.9;;;;;;;28.49;45.74707;941.3149;;;;
2021/07/21 11:44:26;;;;;;;17.6;13;;;;;;;28.26;48.23145;941.3289;;;;
2021/07/21 11:46:51;;;;;;;17.1;13.1;;;;;;;28.41;47.51074;941.3027;;;;
2021/07/21 11:49:16;;;;;;;19.4;13.4;;;;;;;27.38;50.09375;941.303;;;;
2021/07/21 11:51:41;;;;;;;19;13.2;;;;;;;27.51;50.87988;941.2792;;;;
2021/07/21 11:54:07;;;;;;;19.4;13;;;;;;;27.94;47.97168;941.1733;;;;
2021/07/21 11:56:32;;;;;;;18.4;13.3;;;;;;;28.23;47.94238;941.2581;;;;
2021/07/21 11:58:58;;;;;;;18.2;12.6;;;;;;;27.89;48.96387;941.1917;;;;
2021/07/21 12:01:23;;;;;;;18.7;13.1;;;;;;;27.41;50.46582;941.2276;;;;
2021/07/21 12:03:48;;;;;;;16.7;12.8;;;;;;;27.56;51.77539;941.2375;;;;
2021/07/21 12:06:14;;;;;;;16.2;12.8;;;;;;;27.57;50.24707;941.2548;;;;
2021/07/21 12:08:40;;;;;;;16.1;13;;;;;;;27.54;50.46875;941.2227;;;;
2021/07/21 12:11:10;;;;;;;18.9;13.2;;;;;;;27.33;50.8125;941.1958;;;;
2021/07/21 12:13:35;;;;;;;16.8;12.9;;;;;;;27.59;48.88379;941.1574;;;;
2021/07/21 12:16:03;;;;;;;16.4;12.3;;;;;;;27.89;48.01367;941.2087;;;;
2021/07/21 12:18:28;;;;;;;17.3;12.2;;;;;;;27.85;47.6416;941.2053;;;;
2021/07/21 12:20:53;;;;;;;16.1;12.5;;;;;;;28.19;47.1543;941.1788;;;;
2021/07/21 12:23:19;;;;;;;16.2;12.8;;;;;;;28.34;47.57422;941.2919;;;;
2021/07/21 12:25:44;;;;;;;16.1;12.5;;;;;;;28.68;46.45703;941.1667;;;;
2021/07/21 12:28:10;;;;;;;17.5;13.2;;;;;;;29.06;47.38867;941.2304;;;;
2021/07/21 12:30:37;;;;;;;16.1;12.4;;;;;;;28.64;47.97559;941.2863;;;;
2021/07/21 12:33:02;;;;;;;15.9;12.1;;;;;;;28.69;45.05371;941.1812;;;;
2021/07/21 12:35:28;;;;;;;18.2;12.4;;;;;;;28.82;44.86426;941.2087;;;;
2021/07/21 12:37:53;;;;;;;19.6;12.8;;;;;;;28.23;47.51563;941.2293;;;;
2021/07/21 12:40:19;;;;;;;17.5;12.9;;;;;;;28.67;48.88184;941.2148;;;;
2021/07/21 12:42:44;;;;;;;14.8;11.6;;;;;;;29.01;45.64453;941.238;;;;
2021/07/21 12:45:15;;;;;;;17.1;12.1;;;;;;;29.05;45.95898;941.1913;;;;
2021/07/21 12:47:43;;;;;;;15.8;12.3;;;;;;;28.95;46.5791;941.1365;;;;
2021/07/21 12:50:07;;;;;;;19.1;12.4;;;;;;;29.04;47.07617;941.2227;;;;
2021/07/21 12:52:36;;;;;;;16;12.5;;;;;;;29.15;44.62305;941.2271;;;;
2021/07/21 12:55:01;;;;;;;17.2;12.4;;;;;;;28.93;46.25586;941.2803;;;;
2021/07/21 12:57:28;;;;;;;17.6;12.6;;;;;;;28.82;45.25684;941.2444;;;;
2021/07/21 12:59:53;;;;;;;17.8;12.2;;;;;;;28.4;47.88965;941.282;;;;
2021/07/21 13:02:21;;;;;;;17.4;12.2;;;;;;;28.53;45.66699;941.1851;;;;
2021/07/21 13:04:45;;;;;;;19.6;12.4;;;;;;;28.17;47.10449;941.2424;;;;
2021/07/21 13:07:10;;;;;;;20.8;12.8;;;;;;;27.92;46.69824;941.1638;;;;
2021/07/21 13:09:38;;;;;;;17.3;12.7;;;;;;;27.54;47.72656;941.1443;;;;
2021/07/21 13:12:02;;;;;;;17.7;12.9;;;;;;;27.8;47.89844;941.155;;;;
2021/07/21 13:14:29;;;;;;;17.5;12.4;;;;;;;27.55;47.81055;941.2283;;;;
2021/07/21 13:16:57;;;;;;;16.7;12.2;;;;;;;27.82;47.4834;941.223;;;;
2021/07/21 13:19:27;;;;;;;20.8;13.2;;;;;;;28.07;46.47656;941.2221;;;;
2021/07/21 13:21:52;;;;;;;16.6;12.7;;;;;;;28.27;47.31738;941.2408;;;;
2021/07/21 13:24:18;;;;;;;17.1;13;;;;;;;28.17;45.31055;941.1831;;;;
2021/07/21 13:26:45;;;;;;;17;12.8;;;;;;;27.39;49.5498;941.1835;;;;
2021/07/21 13:29:10;;;;;;;18.4;13.1;;;;;;;27.62;50.7041;941.1425;;;;
2021/07/21 13:31:39;;;;;;;16.7;12.4;;;;;;;27.65;48.28516;941.1022;;;;
2021/07/21 13:34:04;;;;;;;17.1;12.9;;;;;;;27.71;48.625;941.1055;;;;
2021/07/21 13:36:32;;;;;;;16.1;13.3;;;;;;;27.3;49.2793;941.1326;;;;
2021/07/21 13:38:57;;;;;;;15.9;12.1;;;;;;;27.38;50.04688;941.1083;;;;
2021/07/21 13:41:22;;;;;;;17.7;12.9;;;;;;;27.36;50.5791;941.1016;;;;
2021/07/21 13:43:48;;;;;;;15.6;12.3;;;;;;;27.67;49.37891;941.1127;;;;
2021/07/21 13:46:13;;;;;;;17.5;12.5;;;;;;;27.16;50.42578;941.1071;;;;
2021/07/21 13:48:39;;;;;;;18.5;12.9;;;;;;;27.16;48.35059;941.1429;;;;
2021/07/21 13:51:06;;;;;;;17.9;13;;;;;;;27.19;48.1875;941.1906;;;;
2021/07/21 13:53:31;;;;;;;16.7;12.6;;;;;;;27.41;48.02148;941.1886;;;;
2021/07/21 13:55:58;;;;;;;20.5;13.2;;;;;;;27.35;48.03906;941.122;;;;
2021/07/21 13:58:23;;;;;;;16.7;12.5;;;;;;;27.17;48.64746;941.1855;;;;
2021/07/21 14:00:51;;;;;;;19;12.5;;;;;;;27.34;49.40234;941.1726;;;;
2021/07/21 14:03:16;;;;;;;17.4;13.3;;;;;;;27.37;48.5166;941.1724;;;;
2021/07/21 14:05:43;;;;;;;20.5;13.1;;;;;;;27.03;49.42871;941.1688;;;;